sensor_id;sensor_type;location;lat;lon;timestamp;P1;durP1;ratioP1;P2;durP2;ratioP2
18661;SDS011;61528;49.456;11.098;2023-03-01T00:02:08;16.83;;;10.13;;
18661;SDS011;61528;49.456;11.098;2023-03-01T00:04:34;17.30;;;10.53;;
18661;SDS011;61528;49.456;11.098;2023-03-01T00:07:00;15.93;;;10.10;;
18661;SDS011;61528;49.456;11.098;2023-03-01T00:09:27;16.73;;;10.23;;
18661;SDS011;61528;49.456;11.098;2023-03-01T00:11:53;19.17;;;10.33;;
18661;SDS011;61528;49.456;11.098;2023-03-01T00:14:19;18.20;;;10.23;;
18661;SDS011;61528;49.456;11.098;2023-03-01T00:16:45;16.30;;;9.83;;
18661;SDS011;61528;49.456;11.098;2023-03-01T00:19:14;18.00;;;10.20;;
18661;SDS011;61528;49.456;11.098;2023-03-01T00:21:40;16.87;;;10.13;;
18661;SDS011;61528;49.456;11.098;2023-03-01T00:24:07;16.63;;;10.40;;
18661;SDS011;61528;49.456;11.098;2023-03-01T00:26:33;17.13;;;9.50;;
18661;SDS011;61528;49.456;11.098;2023-03-01T00:29:00;18.33;;;10.17;;
18661;SDS011;61528;49.456;11.098;2023-03-01T00:31:27;16.30;;;9.37;;
18661;SDS011;61528;49.456;11.098;2023-03-01T00:33:58;16.40;;;10.10;;
18661;SDS011;61528;49.456;11.098;2023-03-01T00:36:25;14.77;;;9.97;;
18661;SDS011;61528;49.456;11.098;2023-03-01T00:38:52;18.40;;;10.43;;
18661;SDS011;61528;49.456;11.098;2023-03-01T00:41:19;15.53;;;9.80;;
18661;SDS011;61528;49.456;11.098;2023-03-01T00:43:46;15.63;;;9.63;;
18661;SDS011;61528;49.456;11.098;2023-03-01T00:46:13;15.30;;;9.60;;
18661;SDS011;61528;49.456;11.098;2023-03-01T00:48:39;16.27;;;10.60;;
18661;SDS011;61528;49.456;11.098;2023-03-01T00:51:10;17.63;;;10.30;;
18661;SDS011;61528;49.456;11.098;2023-03-01T00:53:36;15.90;;;10.07;;
18661;SDS011;61528;49.456;11.098;2023-03-01T00:56:03;17.30;;;10.00;;
18661;SDS011;61528;49.456;11.098;2023-03-01T00:58:30;18.63;;;10.20;;
18661;SDS011;61528;49.456;11.098;2023-03-01T01:00:56;15.13;;;9.30;;
18661;SDS011;61528;49.456;11.098;2023-03-01T01:03:23;20.77;;;11.07;;
18661;SDS011;61528;49.456;11.098;2023-03-01T01:05:52;15.60;;;10.53;;
18661;SDS011;61528;49.456;11.098;2023-03-01T01:08:19;18.03;;;10.27;;
18661;SDS011;61528;49.456;11.098;2023-03-01T01:10:46;19.87;;;10.87;;
18661;SDS011;61528;49.456;11.098;2023-03-01T01:13:12;21.23;;;11.77;;
18661;SDS011;61528;49.456;11.098;2023-03-01T01:15:39;18.53;;;10.20;;
18661;SDS011;61528;49.456;11.098;2023-03-01T01:18:06;16.10;;;10.37;;
18661;SDS011;61528;49.456;11.098;2023-03-01T01:20:32;17.20;;;10.20;;
18661;SDS011;61528;49.456;11.098;2023-03-01T01:23:00;20.13;;;11.13;;
18661;SDS011;61528;49.456;11.098;2023-03-01T01:25:27;17.70;;;11.00;;
18661;SDS011;61528;49.456;11.098;2023-03-01T01:27:53;16.57;;;10.37;;
18661;SDS011;61528;49.456;11.098;2023-03-01T01:30:19;21.63;;;11.13;;
18661;SDS011;61528;49.456;11.098;2023-03-01T01:32:45;19.10;;;10.27;;
18661;SDS011;61528;49.456;11.098;2023-03-01T01:35:12;17.90;;;10.47;;
18661;SDS011;61528;49.456;11.098;2023-03-01T01:37:38;19.43;;;10.90;;
18661;SDS011;61528;49.456;11.098;2023-03-01T01:40:04;17.57;;;11.17;;
18661;SDS011;61528;49.456;11.098;2023-03-01T01:42:31;19.77;;;11.17;;
18661;SDS011;61528;49.456;11.098;2023-03-01T01:47:42;18.40;;;10.70;;
18661;SDS011;61528;49.456;11.098;2023-03-01T01:50:14;20.10;;;11.93;;
18661;SDS011;61528;49.456;11.098;2023-03-01T01:52:43;19.00;;;10.17;;
18661;SDS011;61528;49.456;11.098;2023-03-01T01:55:13;20.87;;;11.20;;
18661;SDS011;61528;49.456;11.098;2023-03-01T01:57:49;20.23;;;11.03;;
18661;SDS011;61528;49.456;11.098;2023-03-01T02:00:20;20.70;;;11.00;;
18661;SDS011;61528;49.456;11.098;2023-03-01T02:02:47;21.33;;;11.00;;
18661;SDS011;61528;49.456;11.098;2023-03-01T02:08:01;19.47;;;10.47;;
18661;SDS011;61528;49.456;11.098;2023-03-01T02:10:28;20.77;;;10.10;;
18661;SDS011;61528;49.456;11.098;2023-03-01T02:12:55;18.57;;;10.63;;
18661;SDS011;61528;49.456;11.098;2023-03-01T02:15:22;19.57;;;10.90;;
18661;SDS011;61528;49.456;11.098;2023-03-01T02:17:48;21.20;;;11.20;;
18661;SDS011;61528;49.456;11.098;2023-03-01T02:20:23;18.20;;;11.07;;
18661;SDS011;61528;49.456;11.098;2023-03-01T02:22:52;22.50;;;10.93;;
18661;SDS011;61528;49.456;11.098;2023-03-01T02:25:27;19.93;;;11.33;;
18661;SDS011;61528;49.456;11.098;2023-03-01T02:30:47;20.87;;;10.37;;
18661;SDS011;61528;49.456;11.098;2023-03-01T02:33:33;19.50;;;10.47;;
18661;SDS011;61528;49.456;11.098;2023-03-01T02:36:04;20.23;;;11.00;;
18661;SDS011;61528;49.456;11.098;2023-03-01T02:38:32;23.10;;;12.00;;
18661;SDS011;61528;49.456;11.098;2023-03-01T02:40:58;19.40;;;11.23;;
18661;SDS011;61528;49.456;11.098;2023-03-01T02:43:27;19.33;;;10.50;;
18661;SDS011;61528;49.456;11.098;2023-03-01T02:45:57;21.60;;;11.13;;
18661;SDS011;61528;49.456;11.098;2023-03-01T02:48:23;16.60;;;9.43;;
18661;SDS011;61528;49.456;11.098;2023-03-01T02:53:25;19.43;;;11.40;;
18661;SDS011;61528;49.456;11.098;2023-03-01T02:55:54;16.27;;;11.07;;
18661;SDS011;61528;49.456;11.098;2023-03-01T02:58:20;18.60;;;10.73;;
18661;SDS011;61528;49.456;11.098;2023-03-01T03:00:46;20.17;;;10.70;;
18661;SDS011;61528;49.456;11.098;2023-03-01T03:03:15;19.33;;;10.73;;
18661;SDS011;61528;49.456;11.098;2023-03-01T03:05:42;20.40;;;10.70;;
18661;SDS011;61528;49.456;11.098;2023-03-01T03:08:08;22.73;;;11.57;;
18661;SDS011;61528;49.456;11.098;2023-03-01T03:10:37;21.67;;;11.10;;
18661;SDS011;61528;49.456;11.098;2023-03-01T03:13:12;20.00;;;11.13;;
18661;SDS011;61528;49.456;11.098;2023-03-01T03:15:39;18.07;;;10.63;;
18661;SDS011;61528;49.456;11.098;2023-03-01T03:18:07;18.00;;;10.57;;
18661;SDS011;61528;49.456;11.098;2023-03-01T03:20:33;20.13;;;11.17;;
18661;SDS011;61528;49.456;11.098;2023-03-01T03:23:00;19.80;;;11.10;;
18661;SDS011;61528;49.456;11.098;2023-03-01T03:25:27;16.60;;;10.47;;
18661;SDS011;61528;49.456;11.098;2023-03-01T03:27:53;21.03;;;11.00;;
18661;SDS011;61528;49.456;11.098;2023-03-01T03:30:31;18.27;;;11.23;;
18661;SDS011;61528;49.456;11.098;2023-03-01T03:32:58;19.70;;;11.00;;
18661;SDS011;61528;49.456;11.098;2023-03-01T03:36:07;19.87;;;10.90;;
18661;SDS011;61528;49.456;11.098;2023-03-01T03:38:16;17.77;;;10.60;;
18661;SDS011;61528;49.456;11.098;2023-03-01T03:43:10;17.20;;;10.40;;
18661;SDS011;61528;49.456;11.098;2023-03-01T03:45:37;19.03;;;11.53;;
18661;SDS011;61528;49.456;11.098;2023-03-01T03:48:04;17.67;;;10.03;;
18661;SDS011;61528;49.456;11.098;2023-03-01T03:50:31;16.60;;;10.70;;
18661;SDS011;61528;49.456;11.098;2023-03-01T03:52:57;16.47;;;10.60;;
18661;SDS011;61528;49.456;11.098;2023-03-01T03:55:26;19.57;;;10.40;;
18661;SDS011;61528;49.456;11.098;2023-03-01T03:57:57;21.10;;;10.77;;
18661;SDS011;61528;49.456;11.098;2023-03-01T04:00:27;19.47;;;11.03;;
18661;SDS011;61528;49.456;11.098;2023-03-01T04:02:54;17.93;;;10.57;;
18661;SDS011;61528;49.456;11.098;2023-03-01T04:05:21;19.90;;;10.97;;
18661;SDS011;61528;49.456;11.098;2023-03-01T04:07:48;21.13;;;10.93;;
18661;SDS011;61528;49.456;11.098;2023-03-01T04:10:17;22.03;;;12.00;;
18661;SDS011;61528;49.456;11.098;2023-03-01T04:12:43;18.27;;;11.13;;
18661;SDS011;61528;49.456;11.098;2023-03-01T04:15:10;19.40;;;10.77;;
18661;SDS011;61528;49.456;11.098;2023-03-01T04:17:40;17.50;;;10.80;;
18661;SDS011;61528;49.456;11.098;2023-03-01T04:20:08;18.77;;;10.97;;
18661;SDS011;61528;49.456;11.098;2023-03-01T04:22:34;17.17;;;10.13;;
18661;SDS011;61528;49.456;11.098;2023-03-01T04:25:00;21.03;;;10.60;;
18661;SDS011;61528;49.456;11.098;2023-03-01T04:27:27;18.73;;;11.10;;
18661;SDS011;61528;49.456;11.098;2023-03-01T04:29:53;18.23;;;10.43;;
18661;SDS011;61528;49.456;11.098;2023-03-01T04:32:20;19.47;;;10.90;;
18661;SDS011;61528;49.456;11.098;2023-03-01T04:34:46;20.23;;;10.93;;
18661;SDS011;61528;49.456;11.098;2023-03-01T04:37:12;19.03;;;10.67;;
18661;SDS011;61528;49.456;11.098;2023-03-01T04:39:41;16.97;;;10.63;;
18661;SDS011;61528;49.456;11.098;2023-03-01T04:42:10;18.20;;;10.53;;
18661;SDS011;61528;49.456;11.098;2023-03-01T04:44:37;15.53;;;10.27;;
18661;SDS011;61528;49.456;11.098;2023-03-01T04:47:03;18.50;;;10.57;;
18661;SDS011;61528;49.456;11.098;2023-03-01T04:49:29;17.30;;;10.73;;
18661;SDS011;61528;49.456;11.098;2023-03-01T04:51:56;17.50;;;9.90;;
18661;SDS011;61528;49.456;11.098;2023-03-01T04:54:27;17.47;;;10.67;;
18661;SDS011;61528;49.456;11.098;2023-03-01T04:56:54;17.10;;;9.87;;
18661;SDS011;61528;49.456;11.098;2023-03-01T04:59:20;18.37;;;10.03;;
18661;SDS011;61528;49.456;11.098;2023-03-01T05:01:48;18.33;;;10.80;;
18661;SDS011;61528;49.456;11.098;2023-03-01T05:04:14;16.80;;;10.13;;
18661;SDS011;61528;49.456;11.098;2023-03-01T05:06:41;17.17;;;10.73;;
18661;SDS011;61528;49.456;11.098;2023-03-01T05:09:07;18.53;;;11.27;;
18661;SDS011;61528;49.456;11.098;2023-03-01T05:11:33;20.20;;;10.63;;
18661;SDS011;61528;49.456;11.098;2023-03-01T05:14:01;18.80;;;11.70;;
18661;SDS011;61528;49.456;11.098;2023-03-01T05:16:27;17.80;;;10.97;;
18661;SDS011;61528;49.456;11.098;2023-03-01T05:18:55;17.50;;;10.30;;
18661;SDS011;61528;49.456;11.098;2023-03-01T05:21:21;20.90;;;12.10;;
18661;SDS011;61528;49.456;11.098;2023-03-01T05:23:48;15.87;;;10.33;;
18661;SDS011;61528;49.456;11.098;2023-03-01T05:26:14;18.57;;;10.70;;
18661;SDS011;61528;49.456;11.098;2023-03-01T05:28:42;19.43;;;11.60;;
18661;SDS011;61528;49.456;11.098;2023-03-01T05:31:09;20.57;;;10.20;;
18661;SDS011;61528;49.456;11.098;2023-03-01T05:33:41;17.67;;;10.83;;
18661;SDS011;61528;49.456;11.098;2023-03-01T05:36:08;18.03;;;10.80;;
18661;SDS011;61528;49.456;11.098;2023-03-01T05:38:35;19.63;;;11.47;;
18661;SDS011;61528;49.456;11.098;2023-03-01T05:41:01;20.23;;;11.17;;
18661;SDS011;61528;49.456;11.098;2023-03-01T05:43:30;18.27;;;11.30;;
18661;SDS011;61528;49.456;11.098;2023-03-01T05:45:59;15.57;;;10.60;;
18661;SDS011;61528;49.456;11.098;2023-03-01T05:48:25;16.53;;;10.30;;
18661;SDS011;61528;49.456;11.098;2023-03-01T05:50:51;20.63;;;11.43;;
18661;SDS011;61528;49.456;11.098;2023-03-01T05:53:19;20.53;;;11.57;;
18661;SDS011;61528;49.456;11.098;2023-03-01T05:55:48;22.60;;;11.13;;
18661;SDS011;61528;49.456;11.098;2023-03-01T05:58:18;18.37;;;11.40;;
18661;SDS011;61528;49.456;11.098;2023-03-01T06:00:46;16.70;;;10.27;;
18661;SDS011;61528;49.456;11.098;2023-03-01T06:03:13;18.00;;;10.77;;
18661;SDS011;61528;49.456;11.098;2023-03-01T06:05:40;22.07;;;12.00;;
18661;SDS011;61528;49.456;11.098;2023-03-01T06:08:06;21.73;;;12.17;;
18661;SDS011;61528;49.456;11.098;2023-03-01T06:10:33;20.50;;;11.03;;
18661;SDS011;61528;49.456;11.098;2023-03-01T06:12:59;18.47;;;10.83;;
18661;SDS011;61528;49.456;11.098;2023-03-01T06:15:25;19.93;;;11.17;;
18661;SDS011;61528;49.456;11.098;2023-03-01T06:17:53;20.43;;;10.23;;
18661;SDS011;61528;49.456;11.098;2023-03-01T06:20:20;19.93;;;11.13;;
18661;SDS011;61528;49.456;11.098;2023-03-01T06:22:47;24.13;;;11.07;;
18661;SDS011;61528;49.456;11.098;2023-03-01T06:25:15;22.00;;;12.10;;
18661;SDS011;61528;49.456;11.098;2023-03-01T06:27:42;19.33;;;11.63;;
18661;SDS011;61528;49.456;11.098;2023-03-01T06:30:11;22.10;;;11.77;;
18661;SDS011;61528;49.456;11.098;2023-03-01T06:32:42;18.77;;;11.43;;
18661;SDS011;61528;49.456;11.098;2023-03-01T06:35:09;23.67;;;11.43;;
18661;SDS011;61528;49.456;11.098;2023-03-01T06:37:35;23.53;;;12.17;;
18661;SDS011;61528;49.456;11.098;2023-03-01T06:40:02;25.57;;;11.73;;
18661;SDS011;61528;49.456;11.098;2023-03-01T06:42:33;20.87;;;10.83;;
18661;SDS011;61528;49.456;11.098;2023-03-01T06:44:59;19.17;;;11.33;;
18661;SDS011;61528;49.456;11.098;2023-03-01T06:47:26;19.83;;;11.90;;
18661;SDS011;61528;49.456;11.098;2023-03-01T06:49:52;22.80;;;11.63;;
18661;SDS011;61528;49.456;11.098;2023-03-01T06:52:18;23.10;;;11.63;;
18661;SDS011;61528;49.456;11.098;2023-03-01T06:54:44;18.63;;;10.73;;
18661;SDS011;61528;49.456;11.098;2023-03-01T06:57:12;20.43;;;11.17;;
18661;SDS011;61528;49.456;11.098;2023-03-01T06:59:38;21.40;;;11.90;;
18661;SDS011;61528;49.456;11.098;2023-03-01T07:02:04;20.27;;;11.73;;
18661;SDS011;61528;49.456;11.098;2023-03-01T07:04:30;21.40;;;11.47;;
18661;SDS011;61528;49.456;11.098;2023-03-01T07:06:57;22.27;;;12.07;;
18661;SDS011;61528;49.456;11.098;2023-03-01T07:09:23;19.13;;;11.77;;
18661;SDS011;61528;49.456;11.098;2023-03-01T07:11:49;19.50;;;11.77;;
18661;SDS011;61528;49.456;11.098;2023-03-01T07:14:16;21.23;;;12.40;;
18661;SDS011;61528;49.456;11.098;2023-03-01T07:16:44;21.03;;;12.60;;
18661;SDS011;61528;49.456;11.098;2023-03-01T07:19:10;19.27;;;11.07;;
18661;SDS011;61528;49.456;11.098;2023-03-01T07:21:36;21.13;;;11.53;;
18661;SDS011;61528;49.456;11.098;2023-03-01T07:24:05;21.87;;;12.83;;
18661;SDS011;61528;49.456;11.098;2023-03-01T07:26:31;21.50;;;12.40;;
18661;SDS011;61528;49.456;11.098;2023-03-01T07:29:01;21.63;;;11.87;;
18661;SDS011;61528;49.456;11.098;2023-03-01T07:31:27;22.73;;;12.63;;
18661;SDS011;61528;49.456;11.098;2023-03-01T07:33:54;19.67;;;11.97;;
18661;SDS011;61528;49.456;11.098;2023-03-01T07:36:20;20.67;;;11.83;;
18661;SDS011;61528;49.456;11.098;2023-03-01T07:38:47;21.80;;;12.73;;
18661;SDS011;61528;49.456;11.098;2023-03-01T07:41:13;24.27;;;12.70;;
18661;SDS011;61528;49.456;11.098;2023-03-01T07:43:39;22.60;;;12.70;;
18661;SDS011;61528;49.456;11.098;2023-03-01T07:46:05;21.53;;;12.47;;
18661;SDS011;61528;49.456;11.098;2023-03-01T07:48:32;22.30;;;12.50;;
18661;SDS011;61528;49.456;11.098;2023-03-01T07:50:59;20.40;;;12.30;;
18661;SDS011;61528;49.456;11.098;2023-03-01T07:53:25;21.87;;;12.23;;
18661;SDS011;61528;49.456;11.098;2023-03-01T07:56:01;22.43;;;12.67;;
18661;SDS011;61528;49.456;11.098;2023-03-01T07:58:28;20.40;;;11.73;;
18661;SDS011;61528;49.456;11.098;2023-03-01T08:00:54;23.13;;;12.20;;
18661;SDS011;61528;49.456;11.098;2023-03-01T08:03:20;22.67;;;12.20;;
18661;SDS011;61528;49.456;11.098;2023-03-01T08:05:46;25.93;;;12.87;;
18661;SDS011;61528;49.456;11.098;2023-03-01T08:08:12;23.23;;;13.60;;
18661;SDS011;61528;49.456;11.098;2023-03-01T08:10:39;25.33;;;14.03;;
18661;SDS011;61528;49.456;11.098;2023-03-01T08:13:05;22.27;;;12.73;;
18661;SDS011;61528;49.456;11.098;2023-03-01T08:15:31;21.50;;;12.73;;
18661;SDS011;61528;49.456;11.098;2023-03-01T08:17:57;21.93;;;12.47;;
18661;SDS011;61528;49.456;11.098;2023-03-01T08:20:23;24.80;;;13.57;;
18661;SDS011;61528;49.456;11.098;2023-03-01T08:22:49;21.60;;;13.20;;
18661;SDS011;61528;49.456;11.098;2023-03-01T08:25:16;20.07;;;13.10;;
18661;SDS011;61528;49.456;11.098;2023-03-01T08:27:42;21.13;;;12.87;;
18661;SDS011;61528;49.456;11.098;2023-03-01T08:30:08;19.93;;;11.50;;
18661;SDS011;61528;49.456;11.098;2023-03-01T08:32:36;20.23;;;11.73;;
18661;SDS011;61528;49.456;11.098;2023-03-01T08:35:02;21.23;;;12.80;;
18661;SDS011;61528;49.456;11.098;2023-03-01T08:37:28;21.20;;;12.83;;
18661;SDS011;61528;49.456;11.098;2023-03-01T08:39:56;21.63;;;13.07;;
18661;SDS011;61528;49.456;11.098;2023-03-01T08:42:22;21.53;;;12.53;;
18661;SDS011;61528;49.456;11.098;2023-03-01T08:44:48;21.47;;;12.97;;
18661;SDS011;61528;49.456;11.098;2023-03-01T08:47:14;21.10;;;13.00;;
18661;SDS011;61528;49.456;11.098;2023-03-01T08:49:40;20.13;;;12.93;;
18661;SDS011;61528;49.456;11.098;2023-03-01T08:52:07;20.00;;;12.57;;
18661;SDS011;61528;49.456;11.098;2023-03-01T08:54:33;22.10;;;12.37;;
18661;SDS011;61528;49.456;11.098;2023-03-01T08:57:01;21.60;;;13.27;;
18661;SDS011;61528;49.456;11.098;2023-03-01T08:59:27;20.67;;;12.30;;
18661;SDS011;61528;49.456;11.098;2023-03-01T09:01:55;21.43;;;12.17;;
18661;SDS011;61528;49.456;11.098;2023-03-01T09:04:21;20.70;;;12.43;;
18661;SDS011;61528;49.456;11.098;2023-03-01T09:06:47;21.40;;;13.23;;
18661;SDS011;61528;49.456;11.098;2023-03-01T09:09:14;20.60;;;12.40;;
18661;SDS011;61528;49.456;11.098;2023-03-01T09:11:44;20.70;;;12.57;;
18661;SDS011;61528;49.456;11.098;2023-03-01T09:14:15;21.73;;;12.63;;
18661;SDS011;61528;49.456;11.098;2023-03-01T09:16:41;20.50;;;12.37;;
18661;SDS011;61528;49.456;11.098;2023-03-01T09:19:08;20.43;;;12.70;;
18661;SDS011;61528;49.456;11.098;2023-03-01T09:21:34;21.07;;;13.20;;
18661;SDS011;61528;49.456;11.098;2023-03-01T09:24:00;20.20;;;11.70;;
18661;SDS011;61528;49.456;11.098;2023-03-01T09:26:26;16.70;;;12.10;;
18661;SDS011;61528;49.456;11.098;2023-03-01T09:28:53;17.57;;;12.60;;
18661;SDS011;61528;49.456;11.098;2023-03-01T09:31:21;18.47;;;12.53;;
18661;SDS011;61528;49.456;11.098;2023-03-01T09:33:48;19.93;;;12.10;;
18661;SDS011;61528;49.456;11.098;2023-03-01T09:36:16;22.73;;;13.37;;
18661;SDS011;61528;49.456;11.098;2023-03-01T09:38:43;21.90;;;11.60;;
18661;SDS011;61528;49.456;11.098;2023-03-01T09:41:10;19.97;;;12.20;;
18661;SDS011;61528;49.456;11.098;2023-03-01T09:43:53;18.43;;;11.47;;
18661;SDS011;61528;49.456;11.098;2023-03-01T09:46:22;19.50;;;12.13;;
18661;SDS011;61528;49.456;11.098;2023-03-01T09:48:51;18.13;;;11.97;;
18661;SDS011;61528;49.456;11.098;2023-03-01T09:51:19;18.20;;;12.40;;
18661;SDS011;61528;49.456;11.098;2023-03-01T09:53:49;17.77;;;11.80;;
18661;SDS011;61528;49.456;11.098;2023-03-01T10:06:47;18.73;;;12.53;;
18661;SDS011;61528;49.456;11.098;2023-03-01T10:09:17;19.23;;;12.03;;
18661;SDS011;61528;49.456;11.098;2023-03-01T10:11:48;19.10;;;12.20;;
18661;SDS011;61528;49.456;11.098;2023-03-01T10:16:52;20.13;;;12.57;;
18661;SDS011;61528;49.456;11.098;2023-03-01T10:19:25;18.27;;;11.43;;
18661;SDS011;61528;49.456;11.098;2023-03-01T10:21:54;20.30;;;12.30;;
18661;SDS011;61528;49.456;11.098;2023-03-01T10:24:23;21.53;;;13.77;;
18661;SDS011;61528;49.456;11.098;2023-03-01T10:26:56;18.77;;;12.13;;
18661;SDS011;61528;49.456;11.098;2023-03-01T10:29:26;22.90;;;13.47;;
18661;SDS011;61528;49.456;11.098;2023-03-01T10:31:56;17.47;;;12.17;;
18661;SDS011;61528;49.456;11.098;2023-03-01T10:34:33;22.57;;;14.33;;
18661;SDS011;61528;49.456;11.098;2023-03-01T10:37:21;19.53;;;12.97;;
18661;SDS011;61528;49.456;11.098;2023-03-01T10:42:30;19.17;;;13.53;;
18661;SDS011;61528;49.456;11.098;2023-03-01T10:44:57;20.83;;;13.60;;
18661;SDS011;61528;49.456;11.098;2023-03-01T10:47:25;24.07;;;14.20;;
18661;SDS011;61528;49.456;11.098;2023-03-01T10:50:34;16.90;;;11.83;;
18661;SDS011;61528;49.456;11.098;2023-03-01T10:52:41;18.57;;;11.63;;
18661;SDS011;61528;49.456;11.098;2023-03-01T10:57:43;20.27;;;12.60;;
18661;SDS011;61528;49.456;11.098;2023-03-01T11:00:18;20.20;;;13.83;;
18661;SDS011;61528;49.456;11.098;2023-03-01T11:02:49;21.03;;;12.67;;
18661;SDS011;61528;49.456;11.098;2023-03-01T11:05:20;20.83;;;13.30;;
18661;SDS011;61528;49.456;11.098;2023-03-01T11:07:58;16.43;;;11.50;;
18661;SDS011;61528;49.456;11.098;2023-03-01T11:10:26;18.53;;;12.10;;
18661;SDS011;61528;49.456;11.098;2023-03-01T11:12:53;17.70;;;12.00;;
18661;SDS011;61528;49.456;11.098;2023-03-01T11:15:30;20.43;;;11.93;;
18661;SDS011;61528;49.456;11.098;2023-03-01T11:17:57;16.77;;;10.73;;
18661;SDS011;61528;49.456;11.098;2023-03-01T11:20:31;17.33;;;11.30;;
18661;SDS011;61528;49.456;11.098;2023-03-01T11:23:10;17.30;;;12.10;;
18661;SDS011;61528;49.456;11.098;2023-03-01T11:25:57;17.63;;;11.17;;
18661;SDS011;61528;49.456;11.098;2023-03-01T11:28:24;15.80;;;9.93;;
18661;SDS011;61528;49.456;11.098;2023-03-01T11:30:54;18.17;;;10.97;;
18661;SDS011;61528;49.456;11.098;2023-03-01T11:33:33;17.63;;;11.57;;
18661;SDS011;61528;49.456;11.098;2023-03-01T11:36:02;18.97;;;11.50;;
18661;SDS011;61528;49.456;11.098;2023-03-01T11:38:29;17.90;;;11.83;;
18661;SDS011;61528;49.456;11.098;2023-03-01T11:41:00;15.77;;;10.60;;
18661;SDS011;61528;49.456;11.098;2023-03-01T11:51:48;14.50;;;10.43;;
18661;SDS011;61528;49.456;11.098;2023-03-01T12:26:16;16.30;;;11.40;;
18661;SDS011;61528;49.456;11.098;2023-03-01T12:48:06;12.70;;;11.40;;
18661;SDS011;61528;49.456;11.098;2023-03-01T12:50:42;13.17;;;11.37;;
18661;SDS011;61528;49.456;11.098;2023-03-01T12:53:21;15.53;;;12.03;;
18661;SDS011;61528;49.456;11.098;2023-03-01T12:55:50;13.37;;;11.60;;
18661;SDS011;61528;49.456;11.098;2023-03-01T13:01:21;12.27;;;11.00;;
18661;SDS011;61528;49.456;11.098;2023-03-01T13:09:24;12.70;;;11.07;;
18661;SDS011;61528;49.456;11.098;2023-03-01T13:11:55;12.70;;;11.33;;
18661;SDS011;61528;49.456;11.098;2023-03-01T13:16:51;12.40;;;11.20;;
18661;SDS011;61528;49.456;11.098;2023-03-01T13:19:19;12.57;;;11.10;;
18661;SDS011;61528;49.456;11.098;2023-03-01T13:21:47;13.87;;;11.10;;
18661;SDS011;61528;49.456;11.098;2023-03-01T13:32:29;12.47;;;10.80;;
18661;SDS011;61528;49.456;11.098;2023-03-01T13:34:58;12.60;;;11.30;;
18661;SDS011;61528;49.456;11.098;2023-03-01T13:37:32;16.20;;;10.80;;
18661;SDS011;61528;49.456;11.098;2023-03-01T13:39:59;12.30;;;10.30;;
18661;SDS011;61528;49.456;11.098;2023-03-01T13:42:40;13.90;;;10.40;;
18661;SDS011;61528;49.456;11.098;2023-03-01T13:48:04;13.03;;;10.23;;
18661;SDS011;61528;49.456;11.098;2023-03-01T13:50:36;13.00;;;9.27;;
18661;SDS011;61528;49.456;11.098;2023-03-01T13:53:05;13.03;;;9.70;;
18661;SDS011;61528;49.456;11.098;2023-03-01T13:58:01;13.60;;;10.57;;
18661;SDS011;61528;49.456;11.098;2023-03-01T14:00:34;12.40;;;9.93;;
18661;SDS011;61528;49.456;11.098;2023-03-01T14:03:17;11.00;;;9.77;;
18661;SDS011;61528;49.456;11.098;2023-03-01T14:05:56;14.27;;;10.43;;
18661;SDS011;61528;49.456;11.098;2023-03-01T14:08:24;13.03;;;10.10;;
18661;SDS011;61528;49.456;11.098;2023-03-01T14:13:35;12.33;;;9.47;;
18661;SDS011;61528;49.456;11.098;2023-03-01T14:19:04;13.67;;;10.00;;
18661;SDS011;61528;49.456;11.098;2023-03-01T14:21:32;12.47;;;9.73;;
18661;SDS011;61528;49.456;11.098;2023-03-01T14:23:58;13.13;;;10.90;;
18661;SDS011;61528;49.456;11.098;2023-03-01T14:26:24;13.87;;;10.67;;
18661;SDS011;61528;49.456;11.098;2023-03-01T14:28:51;13.17;;;10.93;;
18661;SDS011;61528;49.456;11.098;2023-03-01T14:33:56;14.53;;;10.63;;
18661;SDS011;61528;49.456;11.098;2023-03-01T14:36:32;13.13;;;10.83;;
18661;SDS011;61528;49.456;11.098;2023-03-01T14:38:59;13.60;;;11.40;;
18661;SDS011;61528;49.456;11.098;2023-03-01T14:41:30;15.90;;;10.80;;
18661;SDS011;61528;49.456;11.098;2023-03-01T14:44:00;16.20;;;11.60;;
18661;SDS011;61528;49.456;11.098;2023-03-01T14:46:38;15.67;;;12.00;;
18661;SDS011;61528;49.456;11.098;2023-03-01T14:51:40;14.17;;;11.27;;
18661;SDS011;61528;49.456;11.098;2023-03-01T14:57:05;11.57;;;10.33;;
18661;SDS011;61528;49.456;11.098;2023-03-01T14:59:33;13.23;;;9.83;;
18661;SDS011;61528;49.456;11.098;2023-03-01T15:01:59;13.03;;;10.20;;
18661;SDS011;61528;49.456;11.098;2023-03-01T15:04:26;12.67;;;9.97;;
18661;SDS011;61528;49.456;11.098;2023-03-01T15:06:53;12.77;;;10.77;;
18661;SDS011;61528;49.456;11.098;2023-03-01T15:09:20;12.23;;;10.10;;
18661;SDS011;61528;49.456;11.098;2023-03-01T15:11:47;12.77;;;10.90;;
18661;SDS011;61528;49.456;11.098;2023-03-01T15:14:47;12.63;;;10.57;;
18661;SDS011;61528;49.456;11.098;2023-03-01T15:17:39;11.33;;;9.70;;
18661;SDS011;61528;49.456;11.098;2023-03-01T15:20:00;13.00;;;9.70;;
18661;SDS011;61528;49.456;11.098;2023-03-01T15:22:27;11.93;;;10.13;;
18661;SDS011;61528;49.456;11.098;2023-03-01T15:24:53;11.93;;;10.10;;
18661;SDS011;61528;49.456;11.098;2023-03-01T15:27:21;12.77;;;10.27;;
18661;SDS011;61528;49.456;11.098;2023-03-01T15:29:48;14.90;;;10.03;;
18661;SDS011;61528;49.456;11.098;2023-03-01T15:32:25;11.80;;;9.67;;
18661;SDS011;61528;49.456;11.098;2023-03-01T15:34:52;11.60;;;9.50;;
18661;SDS011;61528;49.456;11.098;2023-03-01T15:40:17;11.97;;;9.40;;
18661;SDS011;61528;49.456;11.098;2023-03-01T15:42:44;13.13;;;9.60;;
18661;SDS011;61528;49.456;11.098;2023-03-01T15:45:19;12.90;;;10.17;;
18661;SDS011;61528;49.456;11.098;2023-03-01T15:47:48;13.37;;;10.00;;
18661;SDS011;61528;49.456;11.098;2023-03-01T15:50:28;11.57;;;9.40;;
18661;SDS011;61528;49.456;11.098;2023-03-01T15:52:55;12.57;;;10.13;;
18661;SDS011;61528;49.456;11.098;2023-03-01T15:55:24;14.37;;;9.33;;
18661;SDS011;61528;49.456;11.098;2023-03-01T16:00:31;13.27;;;9.80;;
18661;SDS011;61528;49.456;11.098;2023-03-01T16:02:58;14.10;;;9.97;;
18661;SDS011;61528;49.456;11.098;2023-03-01T16:05:26;15.30;;;9.83;;
18661;SDS011;61528;49.456;11.098;2023-03-01T16:07:53;12.10;;;9.67;;
18661;SDS011;61528;49.456;11.098;2023-03-01T16:10:20;13.43;;;9.97;;
18661;SDS011;61528;49.456;11.098;2023-03-01T16:12:47;12.23;;;9.40;;
18661;SDS011;61528;49.456;11.098;2023-03-01T16:15:16;13.27;;;9.40;;
18661;SDS011;61528;49.456;11.098;2023-03-01T16:17:43;11.00;;;9.27;;
18661;SDS011;61528;49.456;11.098;2023-03-01T16:20:09;13.50;;;9.97;;
18661;SDS011;61528;49.456;11.098;2023-03-01T16:22:36;13.47;;;9.83;;
18661;SDS011;61528;49.456;11.098;2023-03-01T16:25:02;14.60;;;10.60;;
18661;SDS011;61528;49.456;11.098;2023-03-01T16:27:28;14.47;;;10.00;;
18661;SDS011;61528;49.456;11.098;2023-03-01T16:29:55;14.23;;;10.40;;
18661;SDS011;61528;49.456;11.098;2023-03-01T16:32:21;14.80;;;10.90;;
18661;SDS011;61528;49.456;11.098;2023-03-01T16:34:47;12.67;;;10.50;;